sensor_id;sensor_type;location;lat;lon;timestamp;temperature;humidity
21563;DHT22;10942;47.894;11.424;2022-11-20T00:01:50;5.20;99.90
21563;DHT22;10942;47.894;11.424;2022-11-20T00:04:16;5.20;99.90
21563;DHT22;10942;47.894;11.424;2022-11-20T00:06:41;5.20;99.90
21563;DHT22;10942;47.894;11.424;2022-11-20T00:09:10;5.20;99.90
21563;DHT22;10942;47.894;11.424;2022-11-20T00:11:36;5.20;99.90
21563;DHT22;10942;47.894;11.424;2022-11-20T00:14:01;5.10;99.90
21563;DHT22;10942;47.894;11.424;2022-11-20T00:16:31;5.10;99.90
21563;DHT22;10942;47.894;11.424;2022-11-20T00:18:57;5.10;99.90
21563;DHT22;10942;47.894;11.424;2022-11-20T00:21:27;5.10;99.90
21563;DHT22;10942;47.894;11.424;2022-11-20T00:23:55;5.10;99.90
21563;DHT22;10942;47.894;11.424;2022-11-20T00:26:22;5.10;99.90
21563;DHT22;10942;47.894;11.424;2022-11-20T00:28:53;5.10;99.90
21563;DHT22;10942;47.894;11.424;2022-11-20T00:31:20;5.20;99.90
21563;DHT22;10942;47.894;11.424;2022-11-20T00:33:46;5.20;99.90
21563;DHT22;10942;47.894;11.424;2022-11-20T00:36:16;5.20;99.90
21563;DHT22;10942;47.894;11.424;2022-11-20T00:38:43;5.20;99.90
21563;DHT22;10942;47.894;11.424;2022-11-20T00:41:12;5.20;99.90
21563;DHT22;10942;47.894;11.424;2022-11-20T00:43:38;5.30;99.90
21563;DHT22;10942;47.894;11.424;2022-11-20T00:46:07;5.30;99.90
21563;DHT22;10942;47.894;11.424;2022-11-20T00:48:33;5.30;99.90
21563;DHT22;10942;47.894;11.424;2022-11-20T00:50:59;5.30;99.90
21563;DHT22;10942;47.894;11.424;2022-11-20T00:53:25;5.40;99.90
21563;DHT22;10942;47.894;11.424;2022-11-20T00:55:59;5.40;99.90
21563;DHT22;10942;47.894;11.424;2022-11-20T00:58:28;5.40;99.90
21563;DHT22;10942;47.894;11.424;2022-11-20T01:01:18;5.50;99.90
21563;DHT22;10942;47.894;11.424;2022-11-20T01:03:48;5.50;99.90
21563;DHT22;10942;47.894;11.424;2022-11-20T01:06:40;5.50;99.90
21563;DHT22;10942;47.894;11.424;2022-11-20T01:09:13;5.50;99.90
21563;DHT22;10942;47.894;11.424;2022-11-20T01:11:42;5.50;99.90
21563;DHT22;10942;47.894;11.424;2022-11-20T01:14:12;5.50;99.90
21563;DHT22;10942;47.894;11.424;2022-11-20T01:16:40;5.50;99.90
21563;DHT22;10942;47.894;11.424;2022-11-20T01:19:10;5.50;99.90
21563;DHT22;10942;47.894;11.424;2022-11-20T01:21:38;5.50;99.90
21563;DHT22;10942;47.894;11.424;2022-11-20T01:24:05;5.60;99.90
21563;DHT22;10942;47.894;11.424;2022-11-20T01:26:34;5.60;99.90
21563;DHT22;10942;47.894;11.424;2022-11-20T01:29:01;5.60;99.90
21563;DHT22;10942;47.894;11.424;2022-11-20T01:33:56;5.60;99.90
21563;DHT22;10942;47.894;11.424;2022-11-20T01:36:23;5.50;99.90
21563;DHT22;10942;47.894;11.424;2022-11-20T01:38:54;5.60;99.90
21563;DHT22;10942;47.894;11.424;2022-11-20T01:41:21;5.60;99.90
21563;DHT22;10942;47.894;11.424;2022-11-20T01:44:06;5.60;99.90
21563;DHT22;10942;47.894;11.424;2022-11-20T01:46:34;5.60;99.90
21563;DHT22;10942;47.894;11.424;2022-11-20T01:49:16;5.60;99.90
21563;DHT22;10942;47.894;11.424;2022-11-20T01:51:47;5.60;99.90
21563;DHT22;10942;47.894;11.424;2022-11-20T01:54:27;5.60;99.90
21563;DHT22;10942;47.894;11.424;2022-11-20T01:56:56;5.50;99.90
21563;DHT22;10942;47.894;11.424;2022-11-20T01:59:23;5.60;99.90
21563;DHT22;10942;47.894;11.424;2022-11-20T02:01:51;5.50;99.90
21563;DHT22;10942;47.894;11.424;2022-11-20T02:04:18;5.60;99.90
21563;DHT22;10942;47.894;11.424;2022-11-20T02:06:49;5.50;99.90
21563;DHT22;10942;47.894;11.424;2022-11-20T02:09:16;5.50;99.90
21563;DHT22;10942;47.894;11.424;2022-11-20T02:11:42;5.50;99.90
21563;DHT22;10942;47.894;11.424;2022-11-20T02:14:08;5.50;99.90
21563;DHT22;10942;47.894;11.424;2022-11-20T02:16:37;5.50;99.90
21563;DHT22;10942;47.894;11.424;2022-11-20T02:19:09;5.40;99.90
21563;DHT22;10942;47.894;11.424;2022-11-20T02:21:53;5.40;99.90
21563;DHT22;10942;47.894;11.424;2022-11-20T02:24:22;5.40;99.90
21563;DHT22;10942;47.894;11.424;2022-11-20T02:26:59;5.40;99.90
21563;DHT22;10942;47.894;11.424;2022-11-20T02:29:35;5.40;99.90
21563;DHT22;10942;47.894;11.424;2022-11-20T02:32:02;5.40;99.90
21563;DHT22;10942;47.894;11.424;2022-11-20T02:34:28;5.40;99.90
21563;DHT22;10942;47.894;11.424;2022-11-20T02:36:54;5.40;99.90
21563;DHT22;10942;47.894;11.424;2022-11-20T02:39:23;5.40;99.90
21563;DHT22;10942;47.894;11.424;2022-11-20T02:41:52;5.40;99.90
21563;DHT22;10942;47.894;11.424;2022-11-20T02:44:18;5.40;99.90
21563;DHT22;10942;47.894;11.424;2022-11-20T02:46:45;5.40;99.90
21563;DHT22;10942;47.894;11.424;2022-11-20T02:49:11;5.30;99.90
21563;DHT22;10942;47.894;11.424;2022-11-20T02:51:36;5.40;99.90
21563;DHT22;10942;47.894;11.424;2022-11-20T02:54:02;5.40;99.90
21563;DHT22;10942;47.894;11.424;2022-11-20T02:56:28;5.40;99.90
21563;DHT22;10942;47.894;11.424;2022-11-20T02:58:55;5.40;99.90
21563;DHT22;10942;47.894;11.424;2022-11-20T03:01:21;5.30;99.90
21563;DHT22;10942;47.894;11.424;2022-11-20T03:03:47;5.40;99.90
21563;DHT22;10942;47.894;11.424;2022-11-20T03:06:15;5.30;99.90
21563;DHT22;10942;47.894;11.424;2022-11-20T03:08:41;5.30;99.90
21563;DHT22;10942;47.894;11.424;2022-11-20T03:11:08;5.30;99.90
21563;DHT22;10942;47.894;11.424;2022-11-20T03:13:34;5.30;99.90
21563;DHT22;10942;47.894;11.424;2022-11-20T03:16:14;5.30;99.90
21563;DHT22;10942;47.894;11.424;2022-11-20T03:18:41;5.30;99.90
21563;DHT22;10942;47.894;11.424;2022-11-20T03:21:07;5.30;99.90
21563;DHT22;10942;47.894;11.424;2022-11-20T03:23:34;5.20;99.90
21563;DHT22;10942;47.894;11.424;2022-11-20T03:26:16;5.20;99.90
21563;DHT22;10942;47.894;11.424;2022-11-20T03:28:47;5.20;99.90
21563;DHT22;10942;47.894;11.424;2022-11-20T03:31:15;5.20;99.90
21563;DHT22;10942;47.894;11.424;2022-11-20T03:33:41;5.30;99.90
21563;DHT22;10942;47.894;11.424;2022-11-20T03:36:10;5.30;99.90
21563;DHT22;10942;47.894;11.424;2022-11-20T03:38:36;5.30;99.90
21563;DHT22;10942;47.894;11.424;2022-11-20T03:41:07;5.30;99.90
21563;DHT22;10942;47.894;11.424;2022-11-20T03:43:33;5.30;99.90
21563;DHT22;10942;47.894;11.424;2022-11-20T03:45:59;5.20;99.90
21563;DHT22;10942;47.894;11.424;2022-11-20T03:48:25;5.20;99.90
21563;DHT22;10942;47.894;11.424;2022-11-20T03:50:52;5.20;99.90
21563;DHT22;10942;47.894;11.424;2022-11-20T03:53:19;5.30;99.90
21563;DHT22;10942;47.894;11.424;2022-11-20T03:55:50;5.30;99.90
21563;DHT22;10942;47.894;11.424;2022-11-20T03:58:16;5.30;99.90
21563;DHT22;10942;47.894;11.424;2022-11-20T04:00:41;5.30;99.90
21563;DHT22;10942;47.894;11.424;2022-11-20T04:03:07;5.30;99.90
21563;DHT22;10942;47.894;11.424;2022-11-20T04:05:33;5.30;99.90
21563;DHT22;10942;47.894;11.424;2022-11-20T04:07:59;5.40;99.90
21563;DHT22;10942;47.894;11.424;2022-11-20T04:10:25;5.30;99.90
21563;DHT22;10942;47.894;11.424;2022-11-20T04:12:51;5.30;99.90
21563;DHT22;10942;47.894;11.424;2022-11-20T04:15:16;5.30;99.90
21563;DHT22;10942;47.894;11.424;2022-11-20T04:17:43;5.30;99.90
21563;DHT22;10942;47.894;11.424;2022-11-20T04:20:09;5.40;99.90
21563;DHT22;10942;47.894;11.424;2022-11-20T04:22:34;5.30;99.90
21563;DHT22;10942;47.894;11.424;2022-11-20T04:25:00;5.40;99.90
21563;DHT22;10942;47.894;11.424;2022-11-20T04:27:26;5.40;99.90
21563;DHT22;10942;47.894;11.424;2022-11-20T04:29:51;5.40;99.90
21563;DHT22;10942;47.894;11.424;2022-11-20T04:32:17;5.40;99.90
21563;DHT22;10942;47.894;11.424;2022-11-20T04:34:42;5.40;99.90
21563;DHT22;10942;47.894;11.424;2022-11-20T04:37:08;5.40;99.90
21563;DHT22;10942;47.894;11.424;2022-11-20T04:39:34;5.40;99.90
21563;DHT22;10942;47.894;11.424;2022-11-20T04:41:59;5.30;99.90
21563;DHT22;10942;47.894;11.424;2022-11-20T04:44:44;5.30;99.90
21563;DHT22;10942;47.894;11.424;2022-11-20T04:47:09;5.30;99.90
21563;DHT22;10942;47.894;11.424;2022-11-20T04:49:35;5.30;99.90
21563;DHT22;10942;47.894;11.424;2022-11-20T04:52:00;5.30;99.90
21563;DHT22;10942;47.894;11.424;2022-11-20T04:54:26;5.30;99.90
21563;DHT22;10942;47.894;11.424;2022-11-20T04:56:52;5.30;99.90
21563;DHT22;10942;47.894;11.424;2022-11-20T04:59:17;5.30;99.90
21563;DHT22;10942;47.894;11.424;2022-11-20T05:01:43;5.30;99.90
21563;DHT22;10942;47.894;11.424;2022-11-20T05:04:09;5.40;99.90
21563;DHT22;10942;47.894;11.424;2022-11-20T05:06:34;5.30;99.90
21563;DHT22;10942;47.894;11.424;2022-11-20T05:09:00;5.30;99.90
21563;DHT22;10942;47.894;11.424;2022-11-20T05:11:26;5.30;99.90
21563;DHT22;10942;47.894;11.424;2022-11-20T05:13:54;5.30;99.90
21563;DHT22;10942;47.894;11.424;2022-11-20T05:16:24;5.30;99.90
21563;DHT22;10942;47.894;11.424;2022-11-20T05:18:51;5.30;99.90
21563;DHT22;10942;47.894;11.424;2022-11-20T05:21:17;5.30;99.90
21563;DHT22;10942;47.894;11.424;2022-11-20T05:23:44;5.30;99.90
21563;DHT22;10942;47.894;11.424;2022-11-20T05:26:18;5.30;99.90
21563;DHT22;10942;47.894;11.424;2022-11-20T05:28:44;5.30;99.90
21563;DHT22;10942;47.894;11.424;2022-11-20T05:31:11;5.30;99.90
21563;DHT22;10942;47.894;11.424;2022-11-20T05:33:40;5.40;99.90
21563;DHT22;10942;47.894;11.424;2022-11-20T05:36:06;5.40;99.90
21563;DHT22;10942;47.894;11.424;2022-11-20T05:38:32;5.30;99.90
21563;DHT22;10942;47.894;11.424;2022-11-20T05:41:11;5.30;99.90
21563;DHT22;10942;47.894;11.424;2022-11-20T05:43:39;5.40;99.90
21563;DHT22;10942;47.894;11.424;2022-11-20T05:46:06;5.30;99.90
21563;DHT22;10942;47.894;11.424;2022-11-20T05:48:32;5.30;99.90
21563;DHT22;10942;47.894;11.424;2022-11-20T05:50:59;5.30;99.90
21563;DHT22;10942;47.894;11.424;2022-11-20T05:53:25;5.20;99.90
21563;DHT22;10942;47.894;11.424;2022-11-20T05:56:05;5.20;99.90
21563;DHT22;10942;47.894;11.424;2022-11-20T05:58:32;5.20;99.90
21563;DHT22;10942;47.894;11.424;2022-11-20T06:01:27;5.20;99.90
21563;DHT22;10942;47.894;11.424;2022-11-20T06:03:53;5.20;99.90
21563;DHT22;10942;47.894;11.424;2022-11-20T06:06:19;5.20;99.90
21563;DHT22;10942;47.894;11.424;2022-11-20T06:08:46;5.10;99.90
21563;DHT22;10942;47.894;11.424;2022-11-20T06:11:13;5.10;99.90
21563;DHT22;10942;47.894;11.424;2022-11-20T06:13:39;5.10;99.90
21563;DHT22;10942;47.894;11.424;2022-11-20T06:16:05;5.10;99.90
21563;DHT22;10942;47.894;11.424;2022-11-20T06:18:31;5.10;99.90
21563;DHT22;10942;47.894;11.424;2022-11-20T06:23:32;5.00;99.90
21563;DHT22;10942;47.894;11.424;2022-11-20T06:26:02;5.00;99.90
21563;DHT22;10942;47.894;11.424;2022-11-20T06:28:28;5.00;99.90
21563;DHT22;10942;47.894;11.424;2022-11-20T06:30:53;5.00;99.90
21563;DHT22;10942;47.894;11.424;2022-11-20T06:33:19;5.00;99.90
21563;DHT22;10942;47.894;11.424;2022-11-20T06:35:45;5.00;99.90
21563;DHT22;10942;47.894;11.424;2022-11-20T06:38:10;5.00;99.90
21563;DHT22;10942;47.894;11.424;2022-11-20T06:40:40;4.90;99.90
21563;DHT22;10942;47.894;11.424;2022-11-20T06:43:05;4.90;99.90
21563;DHT22;10942;47.894;11.424;2022-11-20T06:45:31;4.80;99.90
21563;DHT22;10942;47.894;11.424;2022-11-20T06:47:57;4.80;99.90
21563;DHT22;10942;47.894;11.424;2022-11-20T06:50:23;4.80;99.90
21563;DHT22;10942;47.894;11.424;2022-11-20T06:52:49;4.80;99.90
21563;DHT22;10942;47.894;11.424;2022-11-20T06:55:15;4.80;99.90
21563;DHT22;10942;47.894;11.424;2022-11-20T06:57:41;4.90;99.90
21563;DHT22;10942;47.894;11.424;2022-11-20T07:00:07;4.90;99.90
21563;DHT22;10942;47.894;11.424;2022-11-20T07:02:32;4.90;99.90
21563;DHT22;10942;47.894;11.424;2022-11-20T07:04:58;4.90;99.90
21563;DHT22;10942;47.894;11.424;2022-11-20T07:07:24;4.90;99.90
21563;DHT22;10942;47.894;11.424;2022-11-20T07:09:49;4.90;99.90
21563;DHT22;10942;47.894;11.424;2022-11-20T07:12:15;4.90;99.90
21563;DHT22;10942;47.894;11.424;2022-11-20T07:14:41;4.90;99.90
21563;DHT22;10942;47.894;11.424;2022-11-20T07:17:07;5.00;99.90
21563;DHT22;10942;47.894;11.424;2022-11-20T07:19:32;5.00;99.90
21563;DHT22;10942;47.894;11.424;2022-11-20T07:21:58;5.10;99.90
21563;DHT22;10942;47.894;11.424;2022-11-20T07:24:24;5.10;99.90
21563;DHT22;10942;47.894;11.424;2022-11-20T07:26:49;5.20;99.90
21563;DHT22;10942;47.894;11.424;2022-11-20T07:29:15;5.40;99.90
21563;DHT22;10942;47.894;11.424;2022-11-20T07:31:42;5.50;99.90
21563;DHT22;10942;47.894;11.424;2022-11-20T07:34:08;5.90;99.90
21563;DHT22;10942;47.894;11.424;2022-11-20T07:36:34;6.10;99.90
21563;DHT22;10942;47.894;11.424;2022-11-20T07:38:59;6.10;99.90
21563;DHT22;10942;47.894;11.424;2022-11-20T07:41:25;6.20;99.90
21563;DHT22;10942;47.894;11.424;2022-11-20T07:43:50;6.10;99.90
21563;DHT22;10942;47.894;11.424;2022-11-20T07:46:16;6.00;99.90
21563;DHT22;10942;47.894;11.424;2022-11-20T07:48:42;6.00;99.90
21563;DHT22;10942;47.894;11.424;2022-11-20T07:51:07;6.00;99.90
21563;DHT22;10942;47.894;11.424;2022-11-20T07:53:33;5.90;99.90
21563;DHT22;10942;47.894;11.424;2022-11-20T07:56:00;5.90;99.90
21563;DHT22;10942;47.894;11.424;2022-11-20T07:58:26;5.90;99.90
21563;DHT22;10942;47.894;11.424;2022-11-20T08:00:53;5.90;99.90
21563;DHT22;10942;47.894;11.424;2022-11-20T08:03:19;5.90;99.90
21563;DHT22;10942;47.894;11.424;2022-11-20T08:05:45;5.80;99.90
21563;DHT22;10942;47.894;11.424;2022-11-20T08:08:10;5.90;99.90
21563;DHT22;10942;47.894;11.424;2022-11-20T08:10:36;5.90;99.90
21563;DHT22;10942;47.894;11.424;2022-11-20T08:13:02;5.90;99.90
21563;DHT22;10942;47.894;11.424;2022-11-20T08:15:50;5.90;99.90
21563;DHT22;10942;47.894;11.424;2022-11-20T08:18:18;5.90;99.90
21563;DHT22;10942;47.894;11.424;2022-11-20T08:20:44;5.90;99.90
21563;DHT22;10942;47.894;11.424;2022-11-20T08:23:11;5.90;99.90
21563;DHT22;10942;47.894;11.424;2022-11-20T08:25:37;6.00;99.90
21563;DHT22;10942;47.894;11.424;2022-11-20T08:28:05;6.00;99.90
21563;DHT22;10942;47.894;11.424;2022-11-20T08:30:32;6.00;99.90
21563;DHT22;10942;47.894;11.424;2022-11-20T08:33:02;6.10;99.90
21563;DHT22;10942;47.894;11.424;2022-11-20T08:35:29;6.10;99.90
21563;DHT22;10942;47.894;11.424;2022-11-20T08:37:57;6.20;99.90
21563;DHT22;10942;47.894;11.424;2022-11-20T08:40:23;6.20;99.90
21563;DHT22;10942;47.894;11.424;2022-11-20T08:42:50;6.20;99.90
21563;DHT22;10942;47.894;11.424;2022-11-20T08:45:16;6.30;99.90
21563;DHT22;10942;47.894;11.424;2022-11-20T08:47:43;6.30;99.90
21563;DHT22;10942;47.894;11.424;2022-11-20T08:50:10;6.40;99.90
21563;DHT22;10942;47.894;11.424;2022-11-20T08:52:36;6.40;99.90
21563;DHT22;10942;47.894;11.424;2022-11-20T08:55:03;6.50;99.90
21563;DHT22;10942;47.894;11.424;2022-11-20T08:57:34;6.50;99.90
21563;DHT22;10942;47.894;11.424;2022-11-20T09:00:00;6.60;99.90
21563;DHT22;10942;47.894;11.424;2022-11-20T09:02:25;6.60;99.90
21563;DHT22;10942;47.894;11.424;2022-11-20T09:04:51;6.60;99.90
21563;DHT22;10942;47.894;11.424;2022-11-20T09:07:17;6.70;99.90
21563;DHT22;10942;47.894;11.424;2022-11-20T09:09:42;6.70;99.90
21563;DHT22;10942;47.894;11.424;2022-11-20T09:12:08;6.80;99.90
21563;DHT22;10942;47.894;11.424;2022-11-20T09:14:34;6.80;99.90
21563;DHT22;10942;47.894;11.424;2022-11-20T09:16:59;6.80;99.90
21563;DHT22;10942;47.894;11.424;2022-11-20T09:19:25;6.80;99.90
21563;DHT22;10942;47.894;11.424;2022-11-20T09:21:51;6.80;99.90
21563;DHT22;10942;47.894;11.424;2022-11-20T09:24:17;6.90;99.90
21563;DHT22;10942;47.894;11.424;2022-11-20T09:26:43;6.90;99.90
21563;DHT22;10942;47.894;11.424;2022-11-20T09:29:09;6.90;99.90
21563;DHT22;10942;47.894;11.424;2022-11-20T09:31:35;6.90;99.90
21563;DHT22;10942;47.894;11.424;2022-11-20T09:34:01;7.00;99.90
21563;DHT22;10942;47.894;11.424;2022-11-20T09:36:26;7.00;99.90
21563;DHT22;10942;47.894;11.424;2022-11-20T09:38:52;7.00;99.90
21563;DHT22;10942;47.894;11.424;2022-11-20T09:41:54;7.10;99.90
21563;DHT22;10942;47.894;11.424;2022-11-20T09:47:51;7.50;99.90
21563;DHT22;10942;47.894;11.424;2022-11-20T09:53:17;7.80;99.90
21563;DHT22;10942;47.894;11.424;2022-11-20T09:55:45;7.90;99.90
21563;DHT22;10942;47.894;11.424;2022-11-20T09:58:32;8.10;99.90
21563;DHT22;10942;47.894;11.424;2022-11-20T10:01:13;8.20;99.90
21563;DHT22;10942;47.894;11.424;2022-11-20T10:04:02;8.50;99.90
21563;DHT22;10942;47.894;11.424;2022-11-20T10:06:34;8.50;99.90
21563;DHT22;10942;47.894;11.424;2022-11-20T10:11:46;8.90;99.90
21563;DHT22;10942;47.894;11.424;2022-11-20T10:25:38;12.70;99.90
21563;DHT22;10942;47.894;11.424;2022-11-20T10:30:41;13.30;99.90
21563;DHT22;10942;47.894;11.424;2022-11-20T10:33:18;13.70;99.90
21563;DHT22;10942;47.894;11.424;2022-11-20T10:38:20;13.40;99.90
21563;DHT22;10942;47.894;11.424;2022-11-20T10:40:57;13.00;99.90
21563;DHT22;10942;47.894;11.424;2022-11-20T10:43:45;12.10;99.90
21563;DHT22;10942;47.894;11.424;2022-11-20T10:46:17;11.80;99.90
21563;DHT22;10942;47.894;11.424;2022-11-20T10:48:44;11.70;99.90
21563;DHT22;10942;47.894;11.424;2022-11-20T10:56:37;12.00;99.90
21563;DHT22;10942;47.894;11.424;2022-11-20T11:02:01;11.40;99.90
21563;DHT22;10942;47.894;11.424;2022-11-20T11:04:37;11.30;99.90
21563;DHT22;10942;47.894;11.424;2022-11-20T11:07:25;11.00;99.90
21563;DHT22;10942;47.894;11.424;2022-11-20T11:09:54;10.80;99.90
21563;DHT22;10942;47.894;11.424;2022-11-20T11:12:28;10.50;99.90
21563;DHT22;10942;47.894;11.424;2022-11-20T11:14:57;10.30;99.90
21563;DHT22;10942;47.894;11.424;2022-11-20T11:20:02;9.50;99.90
21563;DHT22;10942;47.894;11.424;2022-11-20T11:22:34;9.70;99.90
21563;DHT22;10942;47.894;11.424;2022-11-20T11:25:22;9.70;99.90
21563;DHT22;10942;47.894;11.424;2022-11-20T11:27:49;9.30;99.90
21563;DHT22;10942;47.894;11.424;2022-11-20T11:30:16;8.90;99.90
21563;DHT22;10942;47.894;11.424;2022-11-20T11:32:42;8.80;99.90
21563;DHT22;10942;47.894;11.424;2022-11-20T11:35:27;8.60;99.90
21563;DHT22;10942;47.894;11.424;2022-11-20T11:38:01;8.50;99.90
21563;DHT22;10942;47.894;11.424;2022-11-20T11:40:28;8.60;99.90
21563;DHT22;10942;47.894;11.424;2022-11-20T11:43:01;8.60;99.90
21563;DHT22;10942;47.894;11.424;2022-11-20T11:45:28;8.70;99.90
21563;DHT22;10942;47.894;11.424;2022-11-20T11:47:56;8.90;99.90
21563;DHT22;10942;47.894;11.424;2022-11-20T11:50:25;8.90;99.90
21563;DHT22;10942;47.894;11.424;2022-11-20T11:53:05;9.10;99.90
21563;DHT22;10942;47.894;11.424;2022-11-20T12:01:03;9.30;99.90
21563;DHT22;10942;47.894;11.424;2022-11-20T12:03:40;9.40;99.90
21563;DHT22;10942;47.894;11.424;2022-11-20T12:06:17;9.50;99.90
21563;DHT22;10942;47.894;11.424;2022-11-20T12:08:57;9.50;99.90
21563;DHT22;10942;47.894;11.424;2022-11-20T12:11:49;9.60;99.90
21563;DHT22;10942;47.894;11.424;2022-11-20T12:16:50;9.50;99.90
21563;DHT22;10942;47.894;11.424;2022-11-20T12:19:18;9.50;99.90
21563;DHT22;10942;47.894;11.424;2022-11-20T12:37:52;8.60;99.90
21563;DHT22;10942;47.894;11.424;2022-11-20T12:46:11;8.50;99.90
21563;DHT22;10942;47.894;11.424;2022-11-20T12:49:02;8.30;99.90
21563;DHT22;10942;47.894;11.424;2022-11-20T12:52:20;8.20;99.90
21563;DHT22;10942;47.894;11.424;2022-11-20T12:54:28;8.30;99.90
21563;DHT22;10942;47.894;11.424;2022-11-20T12:57:24;8.20;99.90
21563;DHT22;10942;47.894;11.424;2022-11-20T13:05:46;8.10;99.90
21563;DHT22;10942;47.894;11.424;2022-11-20T13:08:30;7.90;99.90
21563;DHT22;10942;47.894;11.424;2022-11-20T13:19:25;7.60;99.90
21563;DHT22;10942;47.894;11.424;2022-11-20T13:21:51;7.60;99.90
21563;DHT22;10942;47.894;11.424;2022-11-20T13:24:23;7.50;99.90
21563;DHT22;10942;47.894;11.424;2022-11-20T13:29:44;7.50;99.90
21563;DHT22;10942;47.894;11.424;2022-11-20T13:32:18;7.40;99.90
21563;DHT22;10942;47.894;11.424;2022-11-20T13:35:00;7.50;99.90
21563;DHT22;10942;47.894;11.424;2022-11-20T13:37:37;7.50;99.90
21563;DHT22;10942;47.894;11.424;2022-11-20T13:42:37;7.40;99.90
21563;DHT22;10942;47.894;11.424;2022-11-20T13:45:26;7.30;99.90
21563;DHT22;10942;47.894;11.424;2022-11-20T13:47:53;7.30;99.90
21563;DHT22;10942;47.894;11.424;2022-11-20T13:50:25;7.40;99.90
21563;DHT22;10942;47.894;11.424;2022-11-20T13:52:58;7.50;99.90
21563;DHT22;10942;47.894;11.424;2022-11-20T13:55:46;7.40;99.90
21563;DHT22;10942;47.894;11.424;2022-11-20T13:58:27;7.50;99.90
21563;DHT22;10942;47.894;11.424;2022-11-20T14:01:10;7.50;99.90
21563;DHT22;10942;47.894;11.424;2022-11-20T14:03:40;7.50;99.90
21563;DHT22;10942;47.894;11.424;2022-11-20T14:06:13;7.50;99.90
21563;DHT22;10942;47.894;11.424;2022-11-20T14:08:47;7.50;99.90
21563;DHT22;10942;47.894;11.424;2022-11-20T14:11:21;7.50;99.90
21563;DHT22;10942;47.894;11.424;2022-11-20T14:14:03;7.50;99.90
21563;DHT22;10942;47.894;11.424;2022-11-20T14:16:34;7.50;99.90
21563;DHT22;10942;47.894;11.424;2022-11-20T14:19:28;7.50;99.90
21563;DHT22;10942;47.894;11.424;2022-11-20T14:22:16;7.40;99.90
21563;DHT22;10942;47.894;11.424;2022-11-20T14:24:44;7.30;99.90
21563;DHT22;10942;47.894;11.424;2022-11-20T14:27:20;7.20;99.90
21563;DHT22;10942;47.894;11.424;2022-11-20T14:29:48;7.20;99.90
21563;DHT22;10942;47.894;11.424;2022-11-20T14:32:17;7.10;99.90
21563;DHT22;10942;47.894;11.424;2022-11-20T14:34:46;7.10;99.90
21563;DHT22;10942;47.894;11.424;2022-11-20T14:37:17;7.10;99.90
21563;DHT22;10942;47.894;11.424;2022-11-20T14:39:53;7.20;99.90
21563;DHT22;10942;47.894;11.424;2022-11-20T14:42:24;7.10;99.90
21563;DHT22;10942;47.894;11.424;2022-11-20T14:44:52;7.00;99.90
21563;DHT22;10942;47.894;11.424;2022-11-20T14:47:22;7.00;99.90
21563;DHT22;10942;47.894;11.424;2022-11-20T14:49:49;6.90;99.90
21563;DHT22;10942;47.894;11.424;2022-11-20T14:52:18;6.90;99.90
21563;DHT22;10942;47.894;11.424;2022-11-20T14:54:53;6.90;99.90
21563;DHT22;10942;47.894;11.424;2022-11-20T14:57:27;6.90;99.90
21563;DHT22;10942;47.894;11.424;2022-11-20T15:02:33;6.90;99.90
21563;DHT22;10942;47.894;11.424;2022-11-20T15:05:00;6.90;99.90
21563;DHT22;10942;47.894;11.424;2022-11-20T15:07:37;7.00;99.90
21563;DHT22;10942;47.894;11.424;2022-11-20T15:10:08;6.90;99.90
21563;DHT22;10942;47.894;11.424;2022-11-20T15:12:38;6.80;99.90
21563;DHT22;10942;47.894;11.424;2022-11-20T15:15:08;6.90;99.90
21563;DHT22;10942;47.894;11.424;2022-11-20T15:17:37;6.70;99.90
21563;DHT22;10942;47.894;11.424;2022-11-20T15:20:10;6.70;99.90
21563;DHT22;10942;47.894;11.424;2022-11-20T15:22:37;6.60;99.90
21563;DHT22;10942;47.894;11.424;2022-11-20T15:25:12;6.60;99.90
21563;DHT22;10942;47.894;11.424;2022-11-20T15:27:37;6.60;99.90
21563;DHT22;10942;47.894;11.424;2022-11-20T15:30:15;6.60;99.90
21563;DHT22;10942;47.894;11.424;2022-11-20T15:32:43;6.50;99.90
21563;DHT22;10942;47.894;11.424;2022-11-20T15:35:09;6.60;99.90
21563;DHT22;10942;47.894;11.424;2022-11-20T15:37:39;6.60;99.90
21563;DHT22;10942;47.894;11.424;2022-11-20T15:40:06;6.60;99.90
21563;DHT22;10942;47.894;11.424;2022-11-20T15:42:32;6.50;99.90
21563;DHT22;10942;47.894;11.424;2022-11-20T15:44:58;6.50;99.90
21563;DHT22;10942;47.894;11.424;2022-11-20T15:47:34;6.60;99.90
21563;DHT22;10942;47.894;11.424;2022-11-20T15:50:00;6.60;99.90
21563;DHT22;10942;47.894;11.424;2022-11-20T15:52:26;6.60;99.90
21563;DHT22;10942;47.894;11.424;2022-11-20T15:54:52;6.60;99.90
21563;DHT22;10942;47.894;11.424;2022-11-20T15:57:18;6.60;99.90
21563;DHT22;10942;47.894;11.424;2022-11-20T15:59:43;6.60;99.90
21563;DHT22;10942;47.894;11.424;2022-11-20T16:02:13;6.50;99.90
21563;DHT22;10942;47.894;11.424;2022-11-20T16:04:39;6.40;99.90
21563;DHT22;10942;47.894;11.424;2022-11-20T16:07:07;6.40;99.90
21563;DHT22;10942;47.894;11.424;2022-11-20T16:09:33;6.30;99.90
21563;DHT22;10942;47.894;11.424;2022-11-20T16:14:26;6.40;99.90
21563;DHT22;10942;47.894;11.424;2022-11-20T16:17:11;6.10;99.90
21563;DHT22;10942;47.894;11.424;2022-11-20T16:19:36;6.10;99.90
21563;DHT22;10942;47.894;11.424;2022-11-20T16:22:02;6.00;99.90
21563;DHT22;10942;47.894;11.424;2022-11-20T16:24:28;6.00;99.90
21563;DHT22;10942;47.894;11.424;2022-11-20T16:29:20;5.80;99.90
21563;DHT22;10942;47.894;11.424;2022-11-20T16:31:46;5.70;99.90
21563;DHT22;10942;47.894;11.424;2022-11-20T16:34:12;5.70;99.90
21563;DHT22;10942;47.894;11.424;2022-11-20T16:36:42;5.70;99.90
21563;DHT22;10942;47.894;11.424;2022-11-20T16:39:08;5.70;99.90
21563;DHT22;10942;47.894;11.424;2022-11-20T16:41:34;5.70;99.90
21563;DHT22;10942;47.894;11.424;2022-11-20T16:44:02;5.60;99.90
21563;DHT22;10942;47.894;11.424;2022-11-20T16:46:31;5.60;99.90
21563;DHT22;10942;47.894;11.424;2022-11-20T16:48:59;5.60;99.90
21563;DHT22;10942;47.894;11.424;2022-11-20T16:51:27;5.50;99.90
21563;DHT22;10942;47.894;11.424;2022-11-20T16:53:53;5.50;99.90
21563;DHT22;10942;47.894;11.424;2022-11-20T16:56:23;5.50;99.90
21563;DHT22;10942;47.894;11.424;2022-11-20T16:58:49;5.50;99.90
21563;DHT22;10942;47.894;11.424;2022-11-20T17:01:17;5.40;99.90
21563;DHT22;10942;47.894;11.424;2022-11-20T17:06:16;5.40;99.90
21563;DHT22;10942;47.894;11.424;2022-11-20T17:08:42;5.40;99.90
21563;DHT22;10942;47.894;11.424;2022-11-20T17:11:10;5.30;99.90
21563;DHT22;10942;47.894;11.424;2022-11-20T17:13:36;5.30;99.90
21563;DHT22;10942;47.894;11.424;2022-11-20T17:16:04;5.30;99.90
21563;DHT22;10942;47.894;11.424;2022-11-20T17:20:57;5.20;99.90
21563;DHT22;10942;47.894;11.424;2022-11-20T17:23:27;5.20;99.90
21563;DHT22;10942;47.894;11.424;2022-11-20T17:26:00;5.10;99.90
21563;DHT22;10942;47.894;11.424;2022-11-20T17:28:27;5.10;99.90